Time;durP1;ratioP1;P1;durP2;ratioP2;P2;SDS_P1;SDS_P2;PMS_P1;PMS_P2;Temp;Humidity;BMP_temperature;BMP_pressure;BME280_temperature;BME280_humidity;BME280_pressure;Samples;Min_cycle;Max_cycle;Signal;HPM_P1;HPM_P2
2021/05/17 00:01:11;;;;;;;12.13;6.57;;;;;;;9.09;75.53;98503.69;5119420;28;20047;-52
2021/05/17 00:03:37;;;;;;;12.98;6.50;;;;;;;9.08;75.09;98495.00;5120010;28;20044;-52
2021/05/17 00:06:03;;;;;;;15.27;7.35;;;;;;;9.04;75.71;98492.59;5119347;28;20058;-52
2021/05/17 00:08:29;;;;;;;12.55;7.25;;;;;;;9.02;76.28;98489.19;5118791;28;20185;-52
2021/05/17 00:10:55;;;;;;;15.10;7.65;;;;;;;9.00;76.69;98489.25;5119321;28;20469;-52
2021/05/17 00:13:21;;;;;;;14.82;7.57;;;;;;;8.96;76.31;98487.66;5119263;28;20043;-52
2021/05/17 00:15:47;;;;;;;15.43;6.93;;;;;;;8.97;75.66;98491.97;5119465;28;20331;-52
2021/05/17 00:18:12;;;;;;;9.75;5.80;;;;;;;8.92;76.23;98487.84;5101690;28;20108;-52
2021/05/17 00:20:38;;;;;;;8.98;5.40;;;;;;;8.89;76.37;98484.44;5119172;28;20052;-52
2021/05/17 00:23:04;;;;;;;8.23;5.15;;;;;;;8.89;75.87;98486.19;5119059;28;20059;-52
2021/05/17 00:25:30;;;;;;;14.98;5.88;;;;;;;8.85;75.27;98488.09;5119037;28;20039;-52
2021/05/17 00:27:57;;;;;;;11.18;6.30;;;;;;;8.85;75.30;98487.22;5119323;28;20505;-51
2021/05/17 00:30:28;;;;;;;9.05;5.30;;;;;;;8.81;75.85;98483.91;5101335;28;20047;-52
2021/05/17 00:32:54;;;;;;;9.50;5.57;;;;;;;8.76;76.04;98474.53;5118367;28;20051;-52
2021/05/17 00:35:19;;;;;;;8.48;4.78;;;;;;;8.73;75.85;98475.50;5116937;28;20047;-51
2021/05/17 00:37:45;;;;;;;9.82;5.22;;;;;;;8.71;75.84;98473.84;5118731;28;20380;-52
2021/05/17 00:40:12;;;;;;;12.18;5.00;;;;;;;8.64;76.09;98463.66;5118726;28;20058;-52
2021/05/17 00:42:38;;;;;;;13.35;6.60;;;;;;;8.65;76.97;98467.97;5084152;28;20043;-52
2021/05/17 00:45:05;;;;;;;36.95;22.20;;;;;;;8.56;79.10;98460.47;5118608;28;20047;-52
2021/05/17 00:47:31;;;;;;;30.48;18.40;;;;;;;8.61;78.61;98462.91;5118540;28;20445;-52
2021/05/17 00:49:57;;;;;;;19.77;10.18;;;;;;;8.55;78.14;98443.13;5118857;28;20051;-51
2021/05/17 00:52:24;;;;;;;12.52;7.22;;;;;;;8.62;79.13;98468.09;5100807;28;20044;-52
2021/05/17 00:54:50;;;;;;;14.07;6.65;;;;;;;8.62;78.95;98457.66;5084100;28;20127;-52
2021/05/17 00:57:17;;;;;;;13.45;6.13;;;;;;;8.68;78.15;98451.34;5117571;28;20089;-51
2021/05/17 00:59:44;;;;;;;13.02;6.93;;;;;;;8.60;80.03;98450.78;5118609;28;20052;-52
2021/05/17 01:02:09;;;;;;;15.32;7.45;;;;;;;8.69;79.61;98455.66;5117656;28;20437;-52
2021/05/17 01:04:53;;;;;;;16.35;7.57;;;;;;;8.76;78.68;98461.47;5102977;28;20437;-51
2021/05/17 01:07:20;;;;;;;17.92;10.52;;;;;;;8.75;79.24;98465.84;5100695;28;20358;-52
2021/05/17 01:09:47;;;;;;;16.25;8.80;;;;;;;8.72;80.23;98460.75;5117573;28;20410;-52
2021/05/17 01:12:15;;;;;;;15.20;8.63;;;;;;;8.78;79.59;98468.34;5117537;28;20039;-52
2021/05/17 01:14:41;;;;;;;13.15;6.65;;;;;;;8.82;78.53;98476.91;5117179;28;20055;-53
2021/05/17 01:17:07;;;;;;;11.60;7.05;;;;;;;8.75;79.60;98450.19;5117104;28;20048;-52
2021/05/17 01:19:40;;;;;;;10.45;6.38;;;;;;;8.81;79.16;98460.41;5083479;28;20088;-51
2021/05/17 01:22:22;;;;;;;10.50;5.68;;;;;;;8.78;79.80;98457.91;5118193;28;20127;-53
2021/05/17 01:24:49;;;;;;;7.78;5.55;;;;;;;8.81;79.05;98477.81;5118240;28;20044;-52
2021/05/17 01:27:17;;;;;;;9.18;6.60;;;;;;;8.83;78.96;98469.00;5116997;28;20430;-52
2021/05/17 01:29:42;;;;;;;15.88;8.02;;;;;;;8.81;80.01;98478.69;5099906;28;20134;-51
2021/05/17 01:32:10;;;;;;;14.93;7.75;;;;;;;8.86;79.38;98474.09;5116832;28;20059;-52
2021/05/17 01:34:38;;;;;;;10.13;6.35;;;;;;;8.85;79.60;98456.75;5117648;28;20055;-51
2021/05/17 01:37:07;;;;;;;13.23;6.05;;;;;;;8.82;80.05;98462.09;5117565;28;20069;-51
2021/05/17 01:39:33;;;;;;;10.80;6.28;;;;;;;8.80;80.04;98457.84;5116986;28;20051;-52
2021/05/17 01:41:59;;;;;;;12.68;6.90;;;;;;;8.84;79.67;98456.81;5116528;28;20048;-52
2021/05/17 01:44:25;;;;;;;9.60;6.07;;;;;;;8.82;79.09;98463.84;5100260;28;20049;-52
2021/05/17 01:46:51;;;;;;;10.77;6.65;;;;;;;8.81;78.87;98463.00;5099358;28;20039;-52
2021/05/17 01:49:18;;;;;;;10.82;5.85;;;;;;;8.80;79.54;98466.50;5117659;28;20116;-52
2021/05/17 01:51:48;;;;;;;9.27;5.30;;;;;;;8.82;79.02;98474.28;5117291;28;20446;-52
2021/05/17 01:54:18;;;;;;;9.88;5.45;;;;;;;8.88;78.90;98476.66;5116443;28;20048;-52
2021/05/17 01:56:47;;;;;;;13.32;6.50;;;;;;;8.80;80.32;98468.28;5116702;28;20112;-52
2021/05/17 01:59:29;;;;;;;10.38;5.93;;;;;;;8.90;80.15;98461.78;5100407;28;20040;-52
2021/05/17 02:01:54;;;;;;;9.68;5.78;;;;;;;8.93;79.77;98463.41;5117117;28;20036;-52
2021/05/17 02:04:20;;;;;;;6.45;4.20;;;;;;;8.98;79.49;98462.34;5099410;28;20043;-52
2021/05/17 02:06:47;;;;;;;9.18;5.72;;;;;;;9.04;79.18;98475.16;5116475;28;20059;-52
2021/05/17 02:09:13;;;;;;;11.07;5.57;;;;;;;8.99;78.89;98450.13;5116455;28;20344;-52
2021/05/17 02:11:39;;;;;;;11.27;7.82;;;;;;;9.04;80.89;98466.47;5082785;28;20066;-52
2021/05/17 02:14:14;;;;;;;10.43;6.85;;;;;;;9.01;82.22;98462.22;5116463;28;20096;-52
2021/05/17 02:16:40;;;;;;;12.45;6.93;;;;;;;9.13;81.06;98458.25;5099418;28;20051;-51
2021/05/17 02:19:06;;;;;;;11.38;6.68;;;;;;;9.16;81.78;98462.50;5117447;28;20032;-51
2021/05/17 02:21:33;;;;;;;8.45;6.25;;;;;;;9.25;80.95;98470.81;5098888;28;20058;-52
2021/05/17 02:24:02;;;;;;;13.05;6.55;;;;;;;9.31;80.48;98470.56;5117121;28;20051;-51
2021/05/17 02:26:27;;;;;;;11.93;7.22;;;;;;;9.38;80.00;98470.31;5116730;28;20437;-52
2021/05/17 02:28:56;;;;;;;9.77;6.65;;;;;;;9.43;79.72;98482.28;5099822;28;20047;-51
2021/05/17 02:31:24;;;;;;;9.20;5.63;;;;;;;9.50;79.72;98490.72;5083129;28;20070;-52
2021/05/17 02:33:50;;;;;;;10.98;6.60;;;;;;;9.55;79.78;98493.97;5116080;28;20047;-52
2021/05/17 02:36:17;;;;;;;14.70;7.95;;;;;;;9.62;79.77;98495.44;5115806;28;20115;-52
2021/05/17 02:38:43;;;;;;;10.23;6.60;;;;;;;9.68;79.44;98496.94;5115755;28;20043;-52
2021/05/17 02:41:09;;;;;;;12.98;7.15;;;;;;;9.75;79.89;98493.13;5115661;28;20123;-52
2021/05/17 02:43:35;;;;;;;13.00;6.20;;;;;;;9.80;79.42;98493.81;5116278;28;20062;-52
2021/05/17 02:46:10;;;;;;;10.98;5.80;;;;;;;9.84;79.42;98496.22;5100436;28;20108;-52
2021/05/17 02:48:41;;;;;;;8.13;5.32;;;;;;;9.93;79.14;98499.38;5115652;28;20039;-53
2021/05/17 02:51:11;;;;;;;10.75;5.50;;;;;;;9.97;79.23;98493.91;5116757;28;20132;-52
2021/05/17 02:53:37;;;;;;;13.10;6.47;;;;;;;10.00;79.16;98500.78;5116460;28;20044;-52
2021/05/17 02:56:11;;;;;;;16.02;8.80;;;;;;;10.10;78.80;98498.63;5116920;28;20047;-52
2021/05/17 02:58:40;;;;;;;12.15;6.45;;;;;;;10.13;79.35;98507.19;5117125;28;20043;-52
2021/05/17 03:01:26;;;;;;;8.48;5.68;;;;;;;10.15;80.14;98507.97;5120670;28;20036;-52
2021/05/17 03:03:53;;;;;;;10.55;5.57;;;;;;;10.13;80.94;98501.94;5119818;28;20039;-52
2021/05/17 03:06:36;;;;;;;8.73;5.47;;;;;;;10.24;80.56;98511.97;5103704;28;20134;-52
2021/05/17 03:09:02;;;;;;;10.50;6.05;;;;;;;10.26;80.49;98500.53;5120225;28;20051;-52
2021/05/17 03:11:39;;;;;;;8.10;4.88;;;;;;;10.35;79.88;98501.91;5119844;28;20433;-52
2021/05/17 03:14:05;;;;;;;6.70;4.32;;;;;;;10.41;79.91;98500.78;5120713;28;20052;-52
2021/05/17 03:16:31;;;;;;;8.50;4.53;;;;;;;10.47;79.63;98503.97;5120345;28;20092;-51
2021/05/17 03:18:57;;;;;;;6.95;3.55;;;;;;;10.55;79.51;98501.00;5120584;28;20048;-52
2021/05/17 03:21:27;;;;;;;6.63;3.35;;;;;;;10.65;79.23;98499.66;5120097;28;20055;-52
2021/05/17 03:23:53;;;;;;;5.55;3.10;;;;;;;10.68;79.14;98502.13;5120503;28;20047;-52
2021/05/17 03:26:19;;;;;;;3.80;2.80;;;;;;;10.73;79.21;98497.53;5119582;28;20143;-51
2021/05/17 03:28:45;;;;;;;5.32;2.92;;;;;;;10.79;79.10;98506.00;5119347;28;20035;-52
2021/05/17 03:31:11;;;;;;;15.45;8.43;;;;;;;10.83;79.04;98495.34;5119176;28;20437;-52
2021/05/17 03:33:37;;;;;;;16.67;8.48;;;;;;;10.85;79.72;98500.50;5102440;28;20061;-52
2021/05/17 03:36:03;;;;;;;19.38;9.43;;;;;;;10.89;79.68;98491.59;5119415;28;20051;-51
2021/05/17 03:38:28;;;;;;;27.27;11.35;;;;;;;10.97;79.12;98494.69;5119984;28;20035;-52
2021/05/17 03:40:54;;;;;;;19.48;9.68;;;;;;;11.00;78.86;98486.69;5119868;28;20054;-52
2021/05/17 03:43:20;;;;;;;20.67;10.75;;;;;;;11.07;78.65;98498.56;5120042;28;20171;-52
2021/05/17 03:45:46;;;;;;;26.23;11.10;;;;;;;11.12;78.86;98498.34;5120117;28;20048;-51
2021/05/17 03:48:11;;;;;;;12.27;6.10;;;;;;;11.11;79.74;98492.25;5102540;28;20047;-52
2021/05/17 03:50:37;;;;;;;8.40;4.80;;;;;;;11.18;79.42;98487.59;5120024;28;20055;-52
2021/05/17 03:53:03;;;;;;;6.80;4.18;;;;;;;11.23;79.09;98482.94;5119960;28;20060;-51
2021/05/17 03:55:28;;;;;;;5.45;3.40;;;;;;;11.26;79.53;98476.72;5119919;28;20059;-52
2021/05/17 03:57:57;;;;;;;9.45;4.75;;;;;;;11.33;79.27;98484.19;5119001;28;20078;-51
2021/05/17 04:00:23;;;;;;;32.67;11.98;;;;;;;11.41;78.71;98482.06;5119579;28;20046;-52
2021/05/17 04:02:48;;;;;;;13.75;6.20;;;;;;;11.44;79.21;98479.28;5119484;28;20035;-51
2021/05/17 04:05:41;;;;;;;10.95;5.45;;;;;;;11.49;78.74;98483.44;5118643;28;20484;-52
2021/05/17 04:12:32;;;;;;;8.15;4.80;;;;;;;11.48;78.58;98479.97;5120561;28;20138;-52
2021/05/17 04:13:56;;;;;;;12.25;6.25;;;;;;;11.55;78.32;98493.63;5119602;28;20052;-52
2021/05/17 04:16:21;;;;;;;8.07;5.50;;;;;;;11.62;77.83;98505.50;5119792;28;20047;-52
2021/05/17 04:18:47;;;;;;;6.80;4.00;;;;;;;11.68;77.58;98513.91;5119514;28;20043;-52
2021/05/17 04:21:13;;;;;;;4.80;2.78;;;;;;;11.75;77.67;98522.31;5118207;28;20077;-52
2021/05/17 04:23:39;;;;;;;4.07;2.72;;;;;;;11.77;77.73;98517.03;5119673;27;20039;-52
2021/05/17 04:26:05;;;;;;;4.40;2.50;;;;;;;11.78;77.55;98519.56;5119324;28;20196;-52
2021/05/17 04:28:31;;;;;;;4.35;2.90;;;;;;;11.77;77.20;98515.25;5119072;28;20112;-52
2021/05/17 04:30:57;;;;;;;8.10;5.03;;;;;;;11.81;77.53;98527.28;5101551;28;20048;-51
2021/05/17 04:33:23;;;;;;;11.50;6.28;;;;;;;11.81;77.52;98524.66;5119492;28;20466;-52
2021/05/17 04:35:49;;;;;;;7.22;4.35;;;;;;;11.86;77.46;98519.19;5119144;28;20077;-52
2021/05/17 04:38:14;;;;;;;6.05;4.88;;;;;;;11.97;77.79;98524.75;5119102;28;20094;-52
2021/05/17 04:40:42;;;;;;;9.05;5.18;;;;;;;12.13;77.92;98516.94;5118096;28;20066;-52
2021/05/17 04:43:07;;;;;;;7.38;4.25;;;;;;;12.33;77.81;98519.38;5118391;28;20058;-52
2021/05/17 04:45:33;;;;;;;5.70;4.03;;;;;;;12.53;77.61;98509.59;5118713;28;20039;-52
2021/05/17 04:47:59;;;;;;;9.23;4.20;;;;;;;12.83;77.93;98515.81;5118640;28;20105;-52
2021/05/17 04:50:25;;;;;;;6.78;3.00;;;;;;;13.53;78.28;98516.31;5118885;28;20080;-52
2021/05/17 04:52:51;;;;;;;4.10;2.75;;;;;;;13.99;75.84;98534.69;5100954;28;20059;-51
2021/05/17 04:55:16;;;;;;;5.55;3.17;;;;;;;14.42;75.02;98526.84;5118773;28;20048;-52
2021/05/17 04:57:42;;;;;;;3.30;1.83;;;;;;;15.26;74.74;98519.91;5118580;28;20044;-53
2021/05/17 05:00:09;;;;;;;3.53;2.20;;;;;;;15.92;71.20;98518.22;5118670;28;20043;-52
2021/05/17 05:02:35;;;;;;;4.00;1.95;;;;;;;16.81;69.34;98519.09;5117895;28;20043;-53
2021/05/17 05:05:00;;;;;;;4.88;2.88;;;;;;;17.64;66.72;98514.88;5118556;28;20047;-52
2021/05/17 05:07:26;;;;;;;9.25;6.00;;;;;;;18.59;64.81;98508.50;5117670;28;20077;-52
2021/05/17 05:09:52;;;;;;;5.50;2.28;;;;;;;19.43;61.53;98503.56;5118484;28;20543;-53
2021/05/17 05:12:17;;;;;;;3.30;2.25;;;;;;;20.16;59.92;98512.56;5084110;28;20494;-52
2021/05/17 05:14:43;;;;;;;4.43;2.20;;;;;;;20.92;57.33;98509.59;5118109;28;20036;-52
2021/05/17 05:17:09;;;;;;;2.10;1.15;;;;;;;21.39;53.71;98512.56;5118298;28;20054;-53
2021/05/17 05:19:35;;;;;;;3.65;1.27;;;;;;;21.51;53.92;98511.41;5118594;28;20043;-52
2021/05/17 05:22:01;;;;;;;1.77;1.38;;;;;;;21.36;53.30;98499.50;5117293;28;20067;-52
2021/05/17 05:24:26;;;;;;;2.25;1.20;;;;;;;21.80;52.87;98516.75;5118573;28;20050;-52
2021/05/17 05:27:42;;;;;;;7.43;1.38;;;;;;;22.43;51.20;98504.78;5118102;28;20395;-52
2021/05/17 05:34:35;;;;;;;0.40;0.20;;;;;;;24.12;46.06;98495.31;5116968;28;20039;-53
2021/05/17 05:37:02;;;;;;;1.63;0.60;;;;;;;24.49;44.02;98496.91;5116746;28;20067;-52
2021/05/17 05:39:28;;;;;;;1.02;0.43;;;;;;;24.64;44.65;98494.50;5117868;28;20345;-53
2021/05/17 05:41:54;;;;;;;0.90;0.50;;;;;;;24.34;44.15;98495.78;5117851;28;20036;-53
2021/05/17 05:44:19;;;;;;;1.35;0.55;;;;;;;24.54;44.36;98496.47;5117798;28;20058;-53
2021/05/17 05:46:45;;;;;;;1.52;0.60;;;;;;;24.88;43.20;98499.13;5117857;28;20043;-53
2021/05/17 05:49:11;;;;;;;2.78;1.00;;;;;;;25.22;42.23;98503.59;5117693;28;20055;-53
2021/05/17 05:51:37;;;;;;;1.08;0.70;;;;;;;25.35;41.56;98509.38;5118492;28;20050;-53
2021/05/17 05:54:03;;;;;;;1.67;0.40;;;;;;;25.66;40.99;98504.22;5117870;28;20357;-53
2021/05/17 05:56:29;;;;;;;0.98;0.32;;;;;;;25.98;40.70;98508.78;5117584;28;20048;-53
2021/05/17 05:58:55;;;;;;;7.32;0.30;;;;;;;26.17;39.45;98510.28;5117518;28;20035;-53
2021/05/17 06:01:21;;;;;;;0.47;0.10;;;;;;;26.34;39.45;98519.16;5117111;28;20111;-53
2021/05/17 06:03:47;;;;;;;1.40;0.60;;;;;;;26.42;38.54;98516.47;5117701;28;20047;-53
2021/05/17 06:06:12;;;;;;;2.75;0.47;;;;;;;26.47;38.37;98511.41;5116819;28;20058;-53
2021/05/17 06:08:43;;;;;;;1.20;0.40;;;;;;;26.69;38.04;98509.88;5115400;28;20371;-52
2021/05/17 06:11:09;;;;;;;0.93;0.30;;;;;;;26.99;37.13;98510.94;5115146;28;20043;-52
2021/05/17 06:13:37;;;;;;;1.52;0.43;;;;;;;27.21;37.14;98497.78;5115249;28;20040;-53
2021/05/17 06:16:06;;;;;;;0.73;0.17;;;;;;;27.56;36.92;98499.09;5115292;28;20043;-53
2021/05/17 06:18:32;;;;;;;1.95;0.70;;;;;;;27.56;36.50;98492.84;5114946;28;20063;-53
2021/05/17 06:21:00;;;;;;;1.27;0.70;;;;;;;27.50;36.22;98497.94;5114972;28;20048;-53
2021/05/17 06:23:29;;;;;;;2.05;0.40;;;;;;;27.95;34.72;98496.31;5117107;28;20058;-53
2021/05/17 06:25:56;;;;;;;0.57;0.10;;;;;;;27.95;34.40;98492.78;5116808;28;20044;-53
2021/05/17 06:28:23;;;;;;;1.55;0.20;;;;;;;28.15;33.94;98493.09;5117035;28;20055;-53
2021/05/17 06:31:02;;;;;;;1.17;0.20;;;;;;;28.30;33.87;98490.41;5116928;28;20047;-53
2021/05/17 06:33:28;;;;;;;2.03;0.60;;;;;;;28.40;32.72;98493.72;5100966;28;20043;-53
2021/05/17 06:35:56;;;;;;;0.80;0.45;;;;;;;28.28;33.53;98485.22;5116054;28;20131;-53
2021/05/17 06:38:22;;;;;;;0.82;0.30;;;;;;;28.50;33.00;98479.97;5117120;28;20051;-53
2021/05/17 06:40:48;;;;;;;1.00;0.50;;;;;;;28.39;33.20;98476.72;5116738;28;20048;-54
2021/05/17 06:43:14;;;;;;;2.80;0.70;;;;;;;28.27;33.99;98482.72;5117087;28;20349;-53
2021/05/17 06:45:39;;;;;;;1.15;0.38;;;;;;;28.42;33.14;98481.75;5115918;28;20043;-53
2021/05/17 06:48:06;;;;;;;2.33;0.40;;;;;;;28.42;32.95;98468.28;5116943;28;20039;-53
2021/05/17 06:50:32;;;;;;;2.10;0.50;;;;;;;28.35;33.31;98477.25;5116729;28;20047;-53
2021/05/17 06:52:58;;;;;;;1.48;0.77;;;;;;;28.33;32.29;98473.91;5116709;28;20093;-54
2021/05/17 06:55:59;;;;;;;2.67;0.82;;;;;;;27.87;32.85;98474.00;5116432;28;20047;-53
2021/05/17 06:58:17;;;;;;;1.73;0.50;;;;;;;27.63;33.26;98467.78;5116602;28;20071;-53
2021/05/17 07:00:43;;;;;;;0.40;0.40;;;;;;;27.66;33.33;98463.91;5116348;28;20445;-53
2021/05/17 07:03:09;;;;;;;2.20;1.30;;;;;;;27.53;33.83;98461.81;5116398;28;20125;-53
2021/05/17 07:05:39;;;;;;;1.35;0.40;;;;;;;27.53;33.30;98461.81;5115935;28;20066;-53
2021/05/17 07:13:16;;;;;;;1.35;0.60;;;;;;;27.40;33.31;98462.41;5116611;28;20047;-54
2021/05/17 07:15:42;;;;;;;1.67;0.77;;;;;;;27.53;32.85;98458.25;5115387;28;20433;-54
2021/05/17 07:18:08;;;;;;;0.65;0.30;;;;;;;27.59;31.49;98449.47;5116494;28;20127;-54
2021/05/17 07:25:45;;;;;;;1.83;0.57;;;;;;;27.76;32.20;98461.78;5116160;28;20357;-54
2021/05/17 07:28:10;;;;;;;3.42;2.10;;;;;;;28.14;31.27;98476.13;5116160;28;20044;-54
2021/05/17 07:30:37;;;;;;;0.60;0.30;;;;;;;28.45;30.11;98494.00;5116982;28;20050;-54
2021/05/17 07:33:03;;;;;;;2.00;0.45;;;;;;;28.61;30.53;98490.31;5116106;28;20044;-54
2021/05/17 07:35:28;;;;;;;1.27;0.60;;;;;;;28.79;30.25;98477.28;5116367;28;20357;-54
2021/05/17 07:37:54;;;;;;;2.53;0.80;;;;;;;28.71;29.75;98472.00;5115199;28;20050;-54
2021/05/17 07:40:20;;;;;;;2.53;0.90;;;;;;;28.51;30.27;98478.97;5116005;28;20080;-54
2021/05/17 07:42:46;;;;;;;1.20;0.60;;;;;;;28.34;30.71;98479.13;5115880;28;20044;-54
2021/05/17 07:45:11;;;;;;;1.20;0.40;;;;;;;28.32;31.13;98470.38;5118190;28;20035;-54
2021/05/17 07:47:37;;;;;;;1.42;0.45;;;;;;;28.41;31.01;98466.63;5120126;28;20050;-54
2021/05/17 07:50:03;;;;;;;1.23;0.30;;;;;;;28.62;29.79;98465.88;5119850;28;20036;-54
2021/05/17 07:52:29;;;;;;;1.92;0.80;;;;;;;28.65;30.28;98464.66;5119706;28;20456;-54
2021/05/17 07:54:55;;;;;;;0.90;0.43;;;;;;;28.76;29.70;98469.59;5119674;27;20082;-54
2021/05/17 07:57:20;;;;;;;0.82;0.55;;;;;;;28.89;30.07;98467.06;5119928;28;20054;-54
2021/05/17 07:59:46;;;;;;;2.55;0.68;;;;;;;28.75;29.82;98467.91;5119896;28;20043;-54
2021/05/17 08:02:20;;;;;;;1.10;0.45;;;;;;;28.60;30.25;98477.84;5119760;28;20400;-54
2021/05/17 08:04:45;;;;;;;1.17;0.50;;;;;;;28.54;29.69;98473.22;5119811;28;20066;-54
2021/05/17 08:07:11;;;;;;;0.52;0.13;;;;;;;28.17;30.27;98456.06;5119410;28;20088;-54
2021/05/17 08:09:37;;;;;;;1.23;0.30;;;;;;;28.03;30.14;98471.16;5119725;28;20112;-54
2021/05/17 08:12:03;;;;;;;1.08;0.20;;;;;;;27.56;30.60;98476.72;5119652;27;20348;-54
2021/05/17 08:14:29;;;;;;;1.95;0.20;;;;;;;27.19;31.32;98483.69;5119579;28;20052;-54
2021/05/17 08:16:55;;;;;;;0.93;0.47;;;;;;;26.96;32.70;98472.84;5101709;28;20330;-54
2021/05/17 08:19:21;;;;;;;1.25;0.80;;;;;;;26.82;33.03;98485.19;5119159;28;20051;-53
2021/05/17 08:21:47;;;;;;;1.25;0.60;;;;;;;26.70;32.77;98473.13;5119099;28;20452;-54
2021/05/17 08:24:13;;;;;;;1.50;0.20;;;;;;;26.38;32.90;98472.19;5119109;28;20453;-54
2021/05/17 08:26:40;;;;;;;0.75;0.20;;;;;;;26.20;33.99;98431.31;5117366;27;20052;-54
2021/05/17 08:29:07;;;;;;;1.05;0.20;;;;;;;26.37;33.77;98469.69;5117276;27;20130;-54
2021/05/17 08:31:33;;;;;;;0.55;0.15;;;;;;;26.20;34.14;98483.13;5116357;28;20109;-54
2021/05/17 08:33:59;;;;;;;1.60;0.90;;;;;;;25.90;34.70;98475.75;5116980;28;20388;-54
2021/05/17 08:36:25;;;;;;;1.25;0.28;;;;;;;25.65;34.86;98484.63;5116967;28;20039;-54
2021/05/17 08:38:51;;;;;;;2.20;1.23;;;;;;;25.19;35.81;98480.69;5116908;28;20036;-54
2021/05/17 08:41:16;;;;;;;0.63;0.20;;;;;;;25.11;35.65;98478.78;5117693;28;20437;-54
2021/05/17 08:43:42;;;;;;;0.93;0.57;;;;;;;24.81;36.43;98479.34;5118774;28;20046;-53
2021/05/17 08:46:10;;;;;;;1.77;0.38;;;;;;;24.58;36.84;98485.25;5118969;28;20043;-53
2021/05/17 08:48:49;;;;;;;1.20;0.30;;;;;;;24.49;36.39;98487.06;5118976;28;20465;-53
2021/05/17 08:51:35;;;;;;;1.38;0.20;;;;;;;24.22;38.05;98479.16;5118017;28;20345;-54
2021/05/17 08:54:03;;;;;;;1.73;0.20;;;;;;;24.13;36.87;98483.63;5119195;28;20059;-53
2021/05/17 08:56:29;;;;;;;0.82;0.40;;;;;;;23.97;37.00;98488.84;5116821;28;20059;-53
2021/05/17 08:58:56;;;;;;;0.60;0.17;;;;;;;23.81;36.73;98486.03;5118417;28;20047;-53
2021/05/17 09:01:22;;;;;;;0.40;0.30;;;;;;;23.67;36.74;98480.22;5118435;28;20044;-53
2021/05/17 09:03:53;;;;;;;5.38;2.72;;;;;;;23.54;37.48;98483.28;5117897;28;20036;-53
2021/05/17 09:06:22;;;;;;;3.05;2.05;;;;;;;23.32;38.48;98475.69;5117502;28;20122;-53
2021/05/17 09:08:48;;;;;;;1.25;0.65;;;;;;;23.14;39.28;98467.69;5117610;28;20040;-53
2021/05/17 09:11:29;;;;;;;1.45;0.30;;;;;;;23.07;39.65;98483.47;5118275;28;20054;-53
2021/05/17 09:14:07;;;;;;;1.38;0.20;;;;;;;22.84;40.22;98488.31;5117675;28;20074;-53
2021/05/17 09:17:02;;;;;;;2.45;0.55;;;;;;;22.81;40.46;98482.44;5118088;28;20361;-53
2021/05/17 09:19:28;;;;;;;0.77;0.50;;;;;;;22.68;40.57;98484.59;5118352;28;20096;-53
2021/05/17 09:22:02;;;;;;;1.52;0.50;;;;;;;22.70;40.88;98486.13;5117931;28;20043;-53
2021/05/17 09:24:43;;;;;;;0.93;0.50;;;;;;;22.56;41.97;98483.97;5118010;28;20039;-54
2021/05/17 09:27:30;;;;;;;2.83;0.47;;;;;;;22.34;41.80;98472.66;5118082;28;20039;-53
2021/05/17 09:29:57;;;;;;;3.03;1.95;;;;;;;22.31;42.13;98480.09;5117579;28;20044;-53
2021/05/17 09:32:25;;;;;;;2.45;1.23;;;;;;;22.28;42.58;98483.06;5118015;28;20047;-53
2021/05/17 09:35:06;;;;;;;1.83;0.38;;;;;;;22.18;42.25;98483.09;5117714;27;20374;-53
2021/05/17 09:37:41;;;;;;;2.58;0.82;;;;;;;22.11;42.21;98484.63;5117760;28;20044;-53
2021/05/17 09:40:25;;;;;;;2.53;0.40;;;;;;;22.15;42.47;98491.34;5117880;28;20047;-53
2021/05/17 09:43:10;;;;;;;1.35;0.40;;;;;;;22.22;41.99;98483.63;5118135;28;20043;-53
2021/05/17 09:45:39;;;;;;;0.95;0.50;;;;;;;22.23;41.45;98485.31;5117823;28;20057;-53
2021/05/17 09:48:09;;;;;;;1.25;0.30;;;;;;;22.17;41.46;98478.75;5117476;28;20039;-53
2021/05/17 09:50:54;;;;;;;1.35;0.22;;;;;;;22.12;41.33;98481.78;5117709;28;20062;-53
2021/05/17 09:53:24;;;;;;;0.90;0.60;;;;;;;22.01;42.25;98481.97;5117431;28;20043;-53
2021/05/17 09:55:49;;;;;;;2.58;1.08;;;;;;;21.97;43.08;98480.59;5116645;28;20069;-53
2021/05/17 09:58:38;;;;;;;0.80;0.40;;;;;;;21.96;42.73;98483.38;5117330;28;20036;-53
2021/05/17 10:01:10;;;;;;;1.23;0.35;;;;;;;21.92;41.94;98478.31;5117698;28;20424;-53
2021/05/17 10:03:37;;;;;;;1.38;0.75;;;;;;;21.81;42.20;98475.81;5116981;27;20058;-53
2021/05/17 10:06:03;;;;;;;0.93;0.30;;;;;;;21.80;42.47;98479.44;5099555;28;20043;-53
2021/05/17 10:08:28;;;;;;;1.50;0.30;;;;;;;21.79;42.39;98483.13;5116829;27;20057;-53
2021/05/17 10:10:54;;;;;;;2.20;0.60;;;;;;;21.85;42.95;98490.53;5099316;28;20040;-53
2021/05/17 10:13:20;;;;;;;1.85;0.40;;;;;;;21.76;43.17;98488.72;5082739;28;20055;-53
2021/05/17 10:15:48;;;;;;;1.92;1.02;;;;;;;21.69;44.07;98492.94;5117036;28;20062;-53
2021/05/17 10:18:14;;;;;;;2.55;0.80;;;;;;;21.64;44.67;98484.50;5116370;28;20044;-52
2021/05/17 10:20:40;;;;;;;2.78;0.55;;;;;;;21.62;44.72;98489.16;5116666;27;20047;-54
2021/05/17 10:23:06;;;;;;;1.52;0.63;;;;;;;21.56;44.80;98482.56;5116470;28;20044;-53
2021/05/17 10:25:33;;;;;;;1.98;0.82;;;;;;;21.56;44.31;98485.22;5116763;28;20047;-53
2021/05/17 10:28:13;;;;;;;1.30;0.60;;;;;;;21.58;44.18;98488.59;5099440;28;20055;-53
2021/05/17 10:30:39;;;;;;;0.77;0.40;;;;;;;21.45;44.74;98488.88;5099487;28;20048;-53
2021/05/17 10:33:06;;;;;;;1.05;0.32;;;;;;;21.45;45.09;98482.72;5116914;28;20425;-52
2021/05/17 10:35:46;;;;;;;2.97;0.82;;;;;;;21.52;45.12;98483.00;5116630;28;20510;-52
2021/05/17 10:38:13;;;;;;;1.58;0.50;;;;;;;21.63;45.13;98480.19;5116715;28;20044;-54
2021/05/17 10:40:41;;;;;;;3.40;0.47;;;;;;;21.77;45.21;98482.41;5116886;28;20057;-53
2021/05/17 10:43:23;;;;;;;2.15;0.50;;;;;;;21.81;44.83;98486.50;5117123;28;20036;-54
2021/05/17 10:48:23;;;;;;;2.15;0.60;;;;;;;21.88;44.13;98494.75;5116825;28;20365;-53
2021/05/17 10:51:10;;;;;;;2.10;0.57;;;;;;;21.91;43.50;98499.81;5116875;28;20053;-53
2021/05/17 10:53:58;;;;;;;1.92;0.30;;;;;;;21.77;44.07;98495.72;5116455;28;20437;-52
2021/05/17 10:56:49;;;;;;;1.45;0.22;;;;;;;21.72;44.33;98491.81;5116398;28;20470;-53
2021/05/17 11:02:13;;;;;;;5.45;2.55;;;;;;;21.75;45.01;98495.03;5116294;28;20453;-54
2021/05/17 11:04:43;;;;;;;3.72;1.45;;;;;;;21.70;44.57;98495.44;5116652;28;20052;-53
2021/05/17 11:07:09;;;;;;;1.63;0.70;;;;;;;21.69;44.58;98501.78;5115633;28;20058;-52
2021/05/17 11:09:52;;;;;;;1.33;0.40;;;;;;;21.61;44.75;98484.78;5116575;28;20047;-53
2021/05/17 11:12:20;;;;;;;0.90;0.50;;;;;;;21.56;45.04;98493.22;5099128;28;20483;-53
2021/05/17 11:15:07;;;;;;;3.50;0.95;;;;;;;21.54;44.96;98492.50;5115641;28;20043;-52
2021/05/17 11:17:55;;;;;;;95.72;61.47;;;;;;;21.52;45.78;98499.81;5116559;28;20066;-53
2021/05/17 11:20:48;;;;;;;29.48;23.98;;;;;;;21.58;45.40;98496.59;5118764;28;20047;-53
2021/05/17 11:23:21;;;;;;;6.28;5.68;;;;;;;21.65;46.08;98500.38;5101418;28;20051;-53
2021/05/17 11:28:43;;;;;;;3.88;2.97;;;;;;;21.71;45.63;98501.66;5120275;28;20093;-52
2021/05/17 11:34:01;;;;;;;1.45;0.60;;;;;;;21.74;45.55;98505.81;5120245;28;20377;-53
2021/05/17 11:36:30;;;;;;;1.52;0.57;;;;;;;21.68;45.02;98500.09;5119464;28;20047;-53
2021/05/17 11:41:36;;;;;;;1.27;0.60;;;;;;;21.68;44.96;98502.75;5120179;28;20052;-53
2021/05/17 11:44:02;;;;;;;3.90;0.65;;;;;;;21.66;44.95;98502.03;5120227;28;20067;-53
2021/05/17 11:46:39;;;;;;;1.85;0.45;;;;;;;21.69;45.27;98501.78;5119870;28;20331;-54
2021/05/17 11:49:05;;;;;;;1.40;0.77;;;;;;;21.74;44.48;98503.16;5120166;28;20059;-54
2021/05/17 11:51:31;;;;;;;3.35;0.68;;;;;;;21.61;43.90;98498.09;5120030;28;20044;-53
2021/05/17 11:53:57;;;;;;;1.80;0.28;;;;;;;21.55;43.93;98496.03;5119154;28;20057;-53
2021/05/17 11:56:34;;;;;;;2.42;0.60;;;;;;;21.50;44.44;98498.25;5119720;28;20078;-53
2021/05/17 11:59:04;;;;;;;2.15;0.60;;;;;;;21.56;44.44;98498.53;5119746;28;20039;-53
2021/05/17 12:01:30;;;;;;;1.17;0.30;;;;;;;21.53;44.56;98493.50;5119785;28;20043;-53
2021/05/17 12:04:08;;;;;;;3.45;0.40;;;;;;;21.51;44.66;98486.63;5120162;28;20039;-52
2021/05/17 12:06:41;;;;;;;2.75;0.43;;;;;;;21.47;44.76;98486.88;5119797;28;20075;-54
2021/05/17 12:09:07;;;;;;;1.52;0.90;;;;;;;21.40;44.92;98483.09;5119751;28;20135;-53
2021/05/17 12:11:33;;;;;;;0.98;0.60;;;;;;;21.36;45.38;98487.03;5119426;28;20035;-53
2021/05/17 12:14:08;;;;;;;6.70;1.33;;;;;;;21.39;46.25;98481.44;5119299;28;20139;-53